createdAt,value
2023-11-10T00:02:11.070Z,72.90
2023-11-10T00:07:14.051Z,72.90
2023-11-10T00:12:19.220Z,74.20
2023-11-10T00:17:23.603Z,73.70
2023-11-10T00:22:26.540Z,74.20
2023-11-10T00:27:29.648Z,73.30
2023-11-10T00:32:37.518Z,74.50
2023-11-10T00:37:40.715Z,73.70
2023-11-10T00:42:43.664Z,73.20
2023-11-10T00:47:47.949Z,72.40
2023-11-10T00:52:51.090Z,71.00
2023-11-10T00:57:54.295Z,71.20
2023-11-10T01:02:58.694Z,72.00
2023-11-10T01:08:01.648Z,71.10
2023-11-10T01:13:04.940Z,70.90
2023-11-10T01:18:09.812Z,70.90
2023-11-10T01:23:12.785Z,70.70
2023-11-10T01:28:15.716Z,71.10
2023-11-10T01:33:20.272Z,71.70
2023-11-10T01:38:23.675Z,71.50
2023-11-10T01:43:26.590Z,72.10
2023-11-10T01:48:32.177Z,73.20
2023-11-10T01:53:35.215Z,73.10
2023-11-10T01:58:38.178Z,72.30
2023-11-10T02:03:42.955Z,72.50
2023-11-10T02:08:46.315Z,72.50
2023-11-10T02:13:49.773Z,73.50
2023-11-10T02:18:54.030Z,72.70
2023-11-10T02:23:58.329Z,73.10
2023-11-10T02:29:02.612Z,73.20
2023-11-10T02:34:05.631Z,73.10
2023-11-10T02:39:10.449Z,73.90
2023-11-10T02:44:15.857Z,74.20
2023-11-10T02:49:19.251Z,73.80
2023-11-10T02:54:22.213Z,74.60
2023-11-10T02:59:26.469Z,75.20
2023-11-10T03:04:29.461Z,75.10
2023-11-10T03:09:32.433Z,75.10
2023-11-10T03:14:37.401Z,74.70
2023-11-10T03:19:40.312Z,74.70
2023-11-10T03:24:43.225Z,73.60
2023-11-10T03:29:47.467Z,73.60
2023-11-10T03:34:50.364Z,73.50
2023-11-10T03:39:53.304Z,73.00
2023-11-10T03:44:57.629Z,73.30
2023-11-10T03:50:00.581Z,73.50
2023-11-10T03:55:03.585Z,72.30
2023-11-10T04:00:10.317Z,73.40
2023-11-10T04:05:13.356Z,73.60
2023-11-10T04:10:18.637Z,73.60
2023-11-10T04:15:23.062Z,73.40
2023-11-10T04:20:25.939Z,73.70
2023-11-10T04:25:30.169Z,73.70
2023-11-10T04:30:34.585Z,74.30
2023-11-10T04:35:37.740Z,74.40
2023-11-10T04:40:41.480Z,75.10
2023-11-10T04:45:45.883Z,74.30
2023-11-10T04:50:49.259Z,74.70
2023-11-10T04:55:52.207Z,74.00
2023-11-10T05:00:56.595Z,74.00
2023-11-10T05:06:01.997Z,74.30
2023-11-10T05:11:06.008Z,73.70
2023-11-10T05:16:12.488Z,74.00
2023-11-10T05:21:15.408Z,75.20
2023-11-10T05:26:18.258Z,75.40
2023-11-10T05:31:22.641Z,75.30
2023-11-10T05:36:26.331Z,75.60
2023-11-10T05:41:29.300Z,74.40
2023-11-10T05:46:33.651Z,74.70
2023-11-10T05:51:36.700Z,74.00
2023-11-10T05:56:39.786Z,73.70
2023-11-10T06:01:44.170Z,74.10
2023-11-10T06:06:47.497Z,74.60
2023-11-10T06:11:55.444Z,72.80
2023-11-10T06:17:00.603Z,73.10
2023-11-10T06:22:03.658Z,72.80
2023-11-10T06:27:07.016Z,72.50
2023-11-10T06:32:12.355Z,73.30
2023-11-10T06:37:16.949Z,72.20
2023-11-10T06:42:19.877Z,72.80
2023-11-10T06:47:25.337Z,72.10
2023-11-10T06:52:28.341Z,71.50
2023-11-10T06:57:31.354Z,71.20
2023-11-10T07:02:35.676Z,71.90
2023-11-10T07:07:38.824Z,71.20
2023-11-10T07:12:43.828Z,71.50
2023-11-10T07:17:48.236Z,71.30
2023-11-10T07:22:54.285Z,71.40
2023-11-10T07:28:00.393Z,72.30
2023-11-10T07:33:05.510Z,72.10
2023-11-10T07:38:08.754Z,71.20
2023-11-10T07:43:12.665Z,71.30
2023-11-10T07:48:16.966Z,71.30
2023-11-10T07:53:19.892Z,71.50
2023-11-10T07:58:23.042Z,70.20
2023-11-10T08:03:27.727Z,70.70
2023-11-10T08:08:30.814Z,70.00
2023-11-10T08:13:35.203Z,70.50
2023-11-10T08:18:39.784Z,70.30
2023-11-10T08:23:43.931Z,69.70
2023-11-10T08:28:46.883Z,69.40
2023-11-10T08:33:51.161Z,70.40
2023-11-10T08:38:54.109Z,71.10
2023-11-10T08:43:57.190Z,71.00
2023-11-10T08:49:02.119Z,70.30
2023-11-10T08:54:05.304Z,70.80
2023-11-10T08:59:09.631Z,70.20
2023-11-10T09:04:21.300Z,70.90
2023-11-10T09:09:29.272Z,69.70
2023-11-10T09:14:32.473Z,69.70
2023-11-10T09:19:38.895Z,69.90
2023-11-10T09:24:42.706Z,69.60
2023-11-10T09:29:46.363Z,69.20
2023-11-10T09:34:50.690Z,69.30
2023-11-10T09:39:53.993Z,69.10
2023-11-10T09:44:58.978Z,68.80
2023-11-10T09:50:04.117Z,69.40
2023-11-10T09:55:08.255Z,69.60
2023-11-10T10:00:14.765Z,68.40
2023-11-10T10:05:19.582Z,69.00
2023-11-10T10:10:23.838Z,68.80
2023-11-10T10:15:28.211Z,68.30
2023-11-10T10:20:35.051Z,68.10
2023-11-10T10:25:40.902Z,67.50
2023-11-10T10:30:46.073Z,68.50
2023-11-10T11:15:04.938Z,66.80
2023-11-10T11:20:11.319Z,64.60
2023-11-10T11:25:14.991Z,65.00
2023-11-10T11:30:21.624Z,65.80
2023-11-10T11:35:49.739Z,65.90
2023-11-10T11:40:52.770Z,66.40
2023-11-10T11:46:00.949Z,66.20
2023-11-10T12:03:50.424Z,67.10
2023-11-10T12:08:53.453Z,67.50
2023-11-10T12:13:57.247Z,67.70
2023-11-10T12:19:02.503Z,68.20
2023-11-10T12:24:07.705Z,69.80
2023-11-10T12:34:48.395Z,70.80
2023-11-10T13:12:30.891Z,74.40
2023-11-10T13:17:33.789Z,75.10
2023-11-10T13:29:00.265Z,74.00
2023-11-10T13:53:04.377Z,75.20
2023-11-10T13:58:08.500Z,75.30
2023-11-10T14:03:11.648Z,75.60
2023-11-10T14:08:16.552Z,75.40
2023-11-10T14:13:21.451Z,74.90
2023-11-10T14:18:25.132Z,75.50
2023-11-10T14:23:37.996Z,76.10
2023-11-10T14:28:41.167Z,75.90
2023-11-10T14:33:45.118Z,75.60
2023-11-10T14:38:55.917Z,76.60
2023-11-10T14:44:00.413Z,76.10
2023-11-10T14:49:03.536Z,76.30
2023-11-10T14:54:07.975Z,76.50
2023-11-10T14:59:12.190Z,77.00
2023-11-10T15:04:16.750Z,76.40
2023-11-10T15:09:21.621Z,76.10
2023-11-10T15:14:24.502Z,76.60
2023-11-10T15:19:27.449Z,76.20
2023-11-10T15:24:32.362Z,75.80
2023-11-10T15:29:35.333Z,76.50
2023-11-10T15:34:38.193Z,77.70
2023-11-10T15:39:42.389Z,78.30
2023-11-10T15:44:46.824Z,78.00
2023-11-10T15:49:50.045Z,77.10
2023-11-10T15:54:55.181Z,77.40
2023-11-10T15:59:58.174Z,77.40
2023-11-10T16:05:01.250Z,76.50
2023-11-10T16:10:06.094Z,78.20
2023-11-10T16:15:10.590Z,79.50
2023-11-10T16:20:13.626Z,79.00
2023-11-10T16:25:18.015Z,79.10
2023-11-10T16:30:20.994Z,84.50
2023-11-10T16:35:24.034Z,84.40
2023-11-10T16:40:28.281Z,81.70
2023-11-10T16:45:31.397Z,86.00
2023-11-10T16:50:34.293Z,82.30
2023-11-10T17:33:47.181Z,82.60
2023-11-10T17:38:53.266Z,83.20
2023-11-10T17:43:57.917Z,86.20
2023-11-10T17:49:02.165Z,85.30
2023-11-10T17:54:05.410Z,81.90
2023-11-10T17:59:08.508Z,85.10
2023-11-10T18:04:13.418Z,84.30
2023-11-10T18:09:16.575Z,84.10
2023-11-10T18:14:21.280Z,84.10
2023-11-10T18:19:25.465Z,83.20
2023-11-10T18:24:29.548Z,83.80
2023-11-10T18:29:34.281Z,81.00
2023-11-10T18:34:38.466Z,82.20
2023-11-10T18:39:41.386Z,81.10
2023-11-10T18:44:45.303Z,81.50
2023-11-10T18:49:49.523Z,87.60
2023-11-10T18:54:52.382Z,86.70
2023-11-10T18:59:55.212Z,81.20
2023-11-10T19:04:59.349Z,82.60
2023-11-10T19:10:03.492Z,82.60
2023-11-10T19:15:07.705Z,81.00
2023-11-10T19:20:12.670Z,85.20
2023-11-10T19:25:15.663Z,82.60
2023-11-10T19:30:18.784Z,80.90
2023-11-10T19:35:23.100Z,85.50
2023-11-10T19:40:25.972Z,81.90
2023-11-10T19:45:28.838Z,82.40
2023-11-10T19:50:33.110Z,84.00
2023-11-10T19:55:39.782Z,83.20
2023-11-10T20:05:49.930Z,85.10
2023-11-10T20:10:52.959Z,83.60
2023-11-10T20:15:56.118Z,84.70
2023-11-10T20:21:02.317Z,84.20
2023-11-10T20:26:05.254Z,85.10
2023-11-10T20:31:08.095Z,83.30
2023-11-10T20:36:12.302Z,84.90
2023-11-10T20:41:15.159Z,84.00
2023-11-10T20:46:20.599Z,82.90
2023-11-10T20:51:25.530Z,83.20
2023-11-10T20:56:29.415Z,82.70
2023-11-10T21:01:32.283Z,83.90
2023-11-10T21:06:36.597Z,81.90
2023-11-10T21:11:39.567Z,84.70
2023-11-10T21:16:42.422Z,84.80
2023-11-10T21:21:48.889Z,87.00
2023-11-10T21:26:51.793Z,88.80
2023-11-10T21:31:54.603Z,81.90
2023-11-10T21:36:58.865Z,82.50
2023-11-10T21:42:03.235Z,87.50
2023-11-10T21:47:07.553Z,85.50
2023-11-10T21:52:11.798Z,83.80
2023-11-10T21:57:14.865Z,82.20
2023-11-10T22:02:17.801Z,84.80
2023-11-10T22:07:22.001Z,83.80
2023-11-10T22:12:25.170Z,79.70
2023-11-10T22:17:28.026Z,80.50
2023-11-10T22:22:32.303Z,79.70
2023-11-10T22:27:35.850Z,80.60
2023-11-10T22:32:39.543Z,81.50
2023-11-10T22:37:44.258Z,77.00
2023-11-10T22:42:47.793Z,77.90
2023-11-10T22:47:51.899Z,80.30
2023-11-10T22:52:56.072Z,79.40
2023-11-10T22:57:58.934Z,78.10
2023-11-10T23:03:02.313Z,75.40
2023-11-10T23:08:07.119Z,78.60
2023-11-10T23:13:11.182Z,79.20
2023-11-10T23:18:14.106Z,76.90
2023-11-10T23:23:18.384Z,79.10
2023-11-10T23:28:22.188Z,71.70
2023-11-10T23:33:25.182Z,73.40
2023-11-10T23:38:29.818Z,77.60
2023-11-10T23:43:32.737Z,81.80
2023-11-10T23:48:35.794Z,74.60
2023-11-10T23:53:40.066Z,75.20
2023-11-10T23:58:42.911Z,76.00
